sensor_id;sensor_type;location;lat;lon;timestamp;P1;durP1;ratioP1;P2;durP2;ratioP2
24443;SDS011;13346;50.984;5.822;2023-05-10T00:01:52;10.90;;;10.00;;
24443;SDS011;13346;50.984;5.822;2023-05-10T00:04:19;10.47;;;9.47;;
24443;SDS011;13346;50.984;5.822;2023-05-10T00:06:48;11.07;;;10.07;;
24443;SDS011;13346;50.984;5.822;2023-05-10T00:09:15;11.30;;;10.30;;
24443;SDS011;13346;50.984;5.822;2023-05-10T00:11:42;11.37;;;10.27;;
24443;SDS011;13346;50.984;5.822;2023-05-10T00:14:09;10.70;;;9.60;;
24443;SDS011;13346;50.984;5.822;2023-05-10T00:16:37;9.13;;;8.23;;
24443;SDS011;13346;50.984;5.822;2023-05-10T00:19:04;9.97;;;9.07;;
24443;SDS011;13346;50.984;5.822;2023-05-10T00:21:32;12.83;;;10.23;;
24443;SDS011;13346;50.984;5.822;2023-05-10T00:24:01;14.40;;;11.77;;
24443;SDS011;13346;50.984;5.822;2023-05-10T00:26:28;13.07;;;10.97;;
24443;SDS011;13346;50.984;5.822;2023-05-10T00:28:55;17.10;;;12.33;;
24443;SDS011;13346;50.984;5.822;2023-05-10T00:31:23;17.10;;;12.53;;
24443;SDS011;13346;50.984;5.822;2023-05-10T00:33:51;15.13;;;12.63;;
24443;SDS011;13346;50.984;5.822;2023-05-10T00:36:18;13.90;;;11.10;;
24443;SDS011;13346;50.984;5.822;2023-05-10T00:38:46;15.57;;;12.17;;
24443;SDS011;13346;50.984;5.822;2023-05-10T00:41:14;14.87;;;11.20;;
24443;SDS011;13346;50.984;5.822;2023-05-10T00:43:43;14.03;;;11.87;;
24443;SDS011;13346;50.984;5.822;2023-05-10T00:46:10;15.67;;;13.43;;
24443;SDS011;13346;50.984;5.822;2023-05-10T00:48:37;17.67;;;12.70;;
24443;SDS011;13346;50.984;5.822;2023-05-10T00:51:04;18.00;;;12.83;;
24443;SDS011;13346;50.984;5.822;2023-05-10T00:53:32;17.53;;;13.50;;
24443;SDS011;13346;50.984;5.822;2023-05-10T00:56:00;14.27;;;12.80;;
24443;SDS011;13346;50.984;5.822;2023-05-10T00:58:29;14.13;;;12.27;;
24443;SDS011;13346;50.984;5.822;2023-05-10T01:00:57;18.27;;;13.03;;
24443;SDS011;13346;50.984;5.822;2023-05-10T01:03:24;17.03;;;14.13;;
24443;SDS011;13346;50.984;5.822;2023-05-10T01:05:52;14.93;;;12.97;;
24443;SDS011;13346;50.984;5.822;2023-05-10T01:08:20;14.47;;;12.97;;
24443;SDS011;13346;50.984;5.822;2023-05-10T01:10:47;14.40;;;12.90;;
24443;SDS011;13346;50.984;5.822;2023-05-10T01:13:16;16.13;;;14.63;;
24443;SDS011;13346;50.984;5.822;2023-05-10T01:15:55;17.43;;;15.13;;
24443;SDS011;13346;50.984;5.822;2023-05-10T01:18:23;17.47;;;14.30;;
24443;SDS011;13346;50.984;5.822;2023-05-10T01:20:54;15.17;;;13.53;;
24443;SDS011;13346;50.984;5.822;2023-05-10T01:23:35;15.07;;;13.47;;
24443;SDS011;13346;50.984;5.822;2023-05-10T01:26:39;14.80;;;13.00;;
24443;SDS011;13346;50.984;5.822;2023-05-10T01:29:48;15.47;;;11.17;;
24443;SDS011;13346;50.984;5.822;2023-05-10T01:32:37;13.70;;;12.10;;
24443;SDS011;13346;50.984;5.822;2023-05-10T01:35:15;12.17;;;11.07;;
24443;SDS011;13346;50.984;5.822;2023-05-10T01:37:50;12.43;;;11.20;;
24443;SDS011;13346;50.984;5.822;2023-05-10T01:40:30;13.13;;;11.93;;
24443;SDS011;13346;50.984;5.822;2023-05-10T01:43:02;12.40;;;11.00;;
24443;SDS011;13346;50.984;5.822;2023-05-10T01:45:33;11.07;;;10.07;;
24443;SDS011;13346;50.984;5.822;2023-05-10T01:48:10;11.77;;;10.57;;
24443;SDS011;13346;50.984;5.822;2023-05-10T01:50:41;10.87;;;9.17;;
24443;SDS011;13346;50.984;5.822;2023-05-10T01:53:10;9.77;;;8.97;;
24443;SDS011;13346;50.984;5.822;2023-05-10T01:55:41;10.00;;;9.27;;
24443;SDS011;13346;50.984;5.822;2023-05-10T01:58:13;10.13;;;9.30;;
24443;SDS011;13346;50.984;5.822;2023-05-10T02:00:44;10.60;;;9.70;;
24443;SDS011;13346;50.984;5.822;2023-05-10T02:03:13;10.30;;;9.50;;
24443;SDS011;13346;50.984;5.822;2023-05-10T02:05:42;9.73;;;8.83;;
24443;SDS011;13346;50.984;5.822;2023-05-10T02:08:12;10.53;;;9.53;;
24443;SDS011;13346;50.984;5.822;2023-05-10T02:10:41;10.57;;;9.67;;
24443;SDS011;13346;50.984;5.822;2023-05-10T02:13:11;9.47;;;8.67;;
24443;SDS011;13346;50.984;5.822;2023-05-10T02:15:39;16.37;;;8.37;;
24443;SDS011;13346;50.984;5.822;2023-05-10T02:18:07;7.93;;;7.37;;
24443;SDS011;13346;50.984;5.822;2023-05-10T02:20:38;8.90;;;8.20;;
24443;SDS011;13346;50.984;5.822;2023-05-10T02:23:06;10.20;;;8.03;;
24443;SDS011;13346;50.984;5.822;2023-05-10T02:25:34;8.67;;;7.93;;
24443;SDS011;13346;50.984;5.822;2023-05-10T02:28:04;8.07;;;7.43;;
24443;SDS011;13346;50.984;5.822;2023-05-10T02:30:33;9.07;;;8.17;;
24443;SDS011;13346;50.984;5.822;2023-05-10T02:33:01;10.53;;;9.43;;
24443;SDS011;13346;50.984;5.822;2023-05-10T02:35:30;10.27;;;8.37;;
24443;SDS011;13346;50.984;5.822;2023-05-10T02:38:00;8.60;;;7.70;;
24443;SDS011;13346;50.984;5.822;2023-05-10T02:40:28;9.07;;;8.37;;
24443;SDS011;13346;50.984;5.822;2023-05-10T02:42:56;7.90;;;7.20;;
24443;SDS011;13346;50.984;5.822;2023-05-10T02:45:26;9.73;;;8.17;;
24443;SDS011;13346;50.984;5.822;2023-05-10T02:47:56;12.67;;;7.60;;
24443;SDS011;13346;50.984;5.822;2023-05-10T02:50:25;10.07;;;6.97;;
24443;SDS011;13346;50.984;5.822;2023-05-10T02:52:54;9.57;;;8.57;;
24443;SDS011;13346;50.984;5.822;2023-05-10T02:55:30;8.67;;;7.90;;
24443;SDS011;13346;50.984;5.822;2023-05-10T02:58:01;10.83;;;7.80;;
24443;SDS011;13346;50.984;5.822;2023-05-10T03:00:29;8.67;;;7.77;;
24443;SDS011;13346;50.984;5.822;2023-05-10T03:02:57;12.13;;;8.40;;
24443;SDS011;13346;50.984;5.822;2023-05-10T03:05:24;10.23;;;8.67;;
24443;SDS011;13346;50.984;5.822;2023-05-10T03:07:52;9.93;;;8.50;;
24443;SDS011;13346;50.984;5.822;2023-05-10T03:10:20;11.67;;;7.93;;
24443;SDS011;13346;50.984;5.822;2023-05-10T03:13:00;11.23;;;9.33;;
24443;SDS011;13346;50.984;5.822;2023-05-10T03:15:37;8.97;;;7.80;;
24443;SDS011;13346;50.984;5.822;2023-05-10T03:18:09;8.90;;;8.00;;
24443;SDS011;13346;50.984;5.822;2023-05-10T03:20:41;11.47;;;7.70;;
24443;SDS011;13346;50.984;5.822;2023-05-10T03:23:11;8.73;;;7.70;;
24443;SDS011;13346;50.984;5.822;2023-05-10T03:25:45;9.37;;;8.43;;
24443;SDS011;13346;50.984;5.822;2023-05-10T03:28:16;8.87;;;8.07;;
24443;SDS011;13346;50.984;5.822;2023-05-10T03:30:45;9.20;;;8.30;;
24443;SDS011;13346;50.984;5.822;2023-05-10T03:33:13;9.60;;;8.70;;
24443;SDS011;13346;50.984;5.822;2023-05-10T03:35:40;15.60;;;9.10;;
24443;SDS011;13346;50.984;5.822;2023-05-10T03:38:10;9.47;;;8.57;;
24443;SDS011;13346;50.984;5.822;2023-05-10T03:40:38;13.60;;;10.57;;
24443;SDS011;13346;50.984;5.822;2023-05-10T03:43:05;12.73;;;10.07;;
24443;SDS011;13346;50.984;5.822;2023-05-10T03:45:34;29.40;;;12.07;;
24443;SDS011;13346;50.984;5.822;2023-05-10T03:48:01;13.07;;;10.37;;
24443;SDS011;13346;50.984;5.822;2023-05-10T03:50:28;14.47;;;10.57;;
24443;SDS011;13346;50.984;5.822;2023-05-10T03:52:55;12.43;;;11.27;;
24443;SDS011;13346;50.984;5.822;2023-05-10T03:55:23;14.27;;;10.27;;
24443;SDS011;13346;50.984;5.822;2023-05-10T03:57:50;11.43;;;10.23;;
24443;SDS011;13346;50.984;5.822;2023-05-10T04:00:19;12.40;;;9.00;;
24443;SDS011;13346;50.984;5.822;2023-05-10T04:02:48;11.87;;;10.60;;
24443;SDS011;13346;50.984;5.822;2023-05-10T04:05:15;14.30;;;11.43;;
24443;SDS011;13346;50.984;5.822;2023-05-10T04:07:42;16.20;;;10.63;;
24443;SDS011;13346;50.984;5.822;2023-05-10T04:10:10;14.53;;;11.40;;
24443;SDS011;13346;50.984;5.822;2023-05-10T04:12:37;17.53;;;12.43;;
24443;SDS011;13346;50.984;5.822;2023-05-10T04:15:05;11.63;;;10.43;;
24443;SDS011;13346;50.984;5.822;2023-05-10T04:17:33;18.50;;;11.80;;
24443;SDS011;13346;50.984;5.822;2023-05-10T04:20:01;21.53;;;13.00;;
24443;SDS011;13346;50.984;5.822;2023-05-10T04:22:29;17.70;;;12.93;;
24443;SDS011;13346;50.984;5.822;2023-05-10T04:24:58;21.20;;;13.80;;
24443;SDS011;13346;50.984;5.822;2023-05-10T04:27:25;19.77;;;13.33;;
24443;SDS011;13346;50.984;5.822;2023-05-10T04:29:52;21.97;;;15.10;;
24443;SDS011;13346;50.984;5.822;2023-05-10T04:32:19;22.87;;;14.17;;
24443;SDS011;13346;50.984;5.822;2023-05-10T04:34:46;16.27;;;14.10;;
24443;SDS011;13346;50.984;5.822;2023-05-10T04:37:15;18.27;;;13.70;;
24443;SDS011;13346;50.984;5.822;2023-05-10T04:39:42;21.10;;;15.10;;
24443;SDS011;13346;50.984;5.822;2023-05-10T04:42:10;17.33;;;14.33;;
24443;SDS011;13346;50.984;5.822;2023-05-10T04:44:37;18.83;;;14.10;;
24443;SDS011;13346;50.984;5.822;2023-05-10T04:47:04;15.63;;;13.07;;
24443;SDS011;13346;50.984;5.822;2023-05-10T04:49:31;25.07;;;15.60;;
24443;SDS011;13346;50.984;5.822;2023-05-10T04:51:59;19.23;;;13.53;;
24443;SDS011;13346;50.984;5.822;2023-05-10T04:54:27;25.57;;;16.37;;
24443;SDS011;13346;50.984;5.822;2023-05-10T04:56:54;23.50;;;13.33;;
24443;SDS011;13346;50.984;5.822;2023-05-10T04:59:21;22.37;;;14.17;;
24443;SDS011;13346;50.984;5.822;2023-05-10T05:01:49;20.70;;;15.07;;
24443;SDS011;13346;50.984;5.822;2023-05-10T05:04:16;20.50;;;14.13;;
24443;SDS011;13346;50.984;5.822;2023-05-10T05:06:43;24.33;;;15.50;;
24443;SDS011;13346;50.984;5.822;2023-05-10T05:09:10;28.00;;;14.07;;
24443;SDS011;13346;50.984;5.822;2023-05-10T05:11:39;17.37;;;13.20;;
24443;SDS011;13346;50.984;5.822;2023-05-10T05:14:06;19.53;;;14.53;;
24443;SDS011;13346;50.984;5.822;2023-05-10T05:16:33;21.20;;;13.87;;
24443;SDS011;13346;50.984;5.822;2023-05-10T05:19:01;17.70;;;13.13;;
24443;SDS011;13346;50.984;5.822;2023-05-10T05:21:28;17.80;;;12.27;;
24443;SDS011;13346;50.984;5.822;2023-05-10T05:23:55;18.50;;;12.20;;
24443;SDS011;13346;50.984;5.822;2023-05-10T05:26:22;12.40;;;11.00;;
24443;SDS011;13346;50.984;5.822;2023-05-10T05:28:51;13.70;;;12.40;;
24443;SDS011;13346;50.984;5.822;2023-05-10T05:31:19;16.50;;;12.17;;
24443;SDS011;13346;50.984;5.822;2023-05-10T05:33:47;13.27;;;11.13;;
24443;SDS011;13346;50.984;5.822;2023-05-10T05:36:14;12.50;;;10.50;;
24443;SDS011;13346;50.984;5.822;2023-05-10T05:38:41;15.20;;;12.27;;
24443;SDS011;13346;50.984;5.822;2023-05-10T05:41:08;21.37;;;13.37;;
24443;SDS011;13346;50.984;5.822;2023-05-10T05:43:36;14.17;;;11.37;;
24443;SDS011;13346;50.984;5.822;2023-05-10T05:46:04;14.03;;;12.10;;
24443;SDS011;13346;50.984;5.822;2023-05-10T05:48:31;13.50;;;11.43;;
24443;SDS011;13346;50.984;5.822;2023-05-10T05:50:59;14.80;;;11.47;;
24443;SDS011;13346;50.984;5.822;2023-05-10T05:53:26;14.30;;;11.67;;
24443;SDS011;13346;50.984;5.822;2023-05-10T05:55:53;15.10;;;10.57;;
24443;SDS011;13346;50.984;5.822;2023-05-10T05:58:21;9.73;;;8.53;;
24443;SDS011;13346;50.984;5.822;2023-05-10T06:00:49;11.17;;;9.83;;
24443;SDS011;13346;50.984;5.822;2023-05-10T06:03:18;11.47;;;9.60;;
24443;SDS011;13346;50.984;5.822;2023-05-10T06:05:46;10.40;;;9.50;;
24443;SDS011;13346;50.984;5.822;2023-05-10T06:08:14;11.47;;;9.27;;
24443;SDS011;13346;50.984;5.822;2023-05-10T06:10:41;11.27;;;9.07;;
24443;SDS011;13346;50.984;5.822;2023-05-10T06:13:08;13.77;;;8.63;;
24443;SDS011;13346;50.984;5.822;2023-05-10T06:15:35;8.70;;;6.20;;
24443;SDS011;13346;50.984;5.822;2023-05-10T06:18:03;6.23;;;5.73;;
24443;SDS011;13346;50.984;5.822;2023-05-10T06:20:32;6.47;;;5.87;;
24443;SDS011;13346;50.984;5.822;2023-05-10T06:22:59;8.20;;;6.47;;
24443;SDS011;13346;50.984;5.822;2023-05-10T06:25:26;11.77;;;6.60;;
24443;SDS011;13346;50.984;5.822;2023-05-10T06:27:53;6.60;;;5.93;;
24443;SDS011;13346;50.984;5.822;2023-05-10T06:30:23;6.10;;;5.43;;
24443;SDS011;13346;50.984;5.822;2023-05-10T06:32:53;6.40;;;5.87;;
24443;SDS011;13346;50.984;5.822;2023-05-10T06:35:20;11.40;;;7.93;;
24443;SDS011;13346;50.984;5.822;2023-05-10T06:37:49;12.97;;;9.50;;
24443;SDS011;13346;50.984;5.822;2023-05-10T06:40:17;13.70;;;10.33;;
24443;SDS011;13346;50.984;5.822;2023-05-10T06:42:44;13.40;;;11.13;;
24443;SDS011;13346;50.984;5.822;2023-05-10T06:45:11;18.67;;;13.73;;
24443;SDS011;13346;50.984;5.822;2023-05-10T06:47:39;19.23;;;13.60;;
24443;SDS011;13346;50.984;5.822;2023-05-10T06:50:07;16.27;;;13.30;;
24443;SDS011;13346;50.984;5.822;2023-05-10T06:52:34;17.30;;;13.83;;
24443;SDS011;13346;50.984;5.822;2023-05-10T06:55:04;19.03;;;14.17;;
24443;SDS011;13346;50.984;5.822;2023-05-10T06:57:31;21.00;;;14.30;;
24443;SDS011;13346;50.984;5.822;2023-05-10T06:59:59;21.27;;;15.33;;
24443;SDS011;13346;50.984;5.822;2023-05-10T07:02:26;22.30;;;14.53;;
24443;SDS011;13346;50.984;5.822;2023-05-10T07:04:54;21.87;;;15.20;;
24443;SDS011;13346;50.984;5.822;2023-05-10T07:07:21;24.83;;;15.77;;
24443;SDS011;13346;50.984;5.822;2023-05-10T07:09:48;24.90;;;16.47;;
24443;SDS011;13346;50.984;5.822;2023-05-10T07:12:17;25.17;;;17.27;;
24443;SDS011;13346;50.984;5.822;2023-05-10T07:14:45;28.00;;;18.47;;
24443;SDS011;13346;50.984;5.822;2023-05-10T07:17:12;26.03;;;14.90;;
24443;SDS011;13346;50.984;5.822;2023-05-10T07:19:39;26.43;;;15.07;;
24443;SDS011;13346;50.984;5.822;2023-05-10T07:22:06;20.30;;;13.60;;
24443;SDS011;13346;50.984;5.822;2023-05-10T07:24:34;26.73;;;16.83;;
24443;SDS011;13346;50.984;5.822;2023-05-10T07:27:01;24.27;;;15.77;;
24443;SDS011;13346;50.984;5.822;2023-05-10T07:29:30;24.10;;;15.50;;
24443;SDS011;13346;50.984;5.822;2023-05-10T07:31:58;32.43;;;18.20;;
24443;SDS011;13346;50.984;5.822;2023-05-10T07:34:25;38.50;;;20.97;;
24443;SDS011;13346;50.984;5.822;2023-05-10T07:36:52;31.73;;;17.70;;
24443;SDS011;13346;50.984;5.822;2023-05-10T07:39:20;27.00;;;17.83;;
24443;SDS011;13346;50.984;5.822;2023-05-10T07:41:47;28.77;;;17.40;;
24443;SDS011;13346;50.984;5.822;2023-05-10T07:44:14;26.47;;;16.70;;
24443;SDS011;13346;50.984;5.822;2023-05-10T07:46:45;26.90;;;17.13;;
24443;SDS011;13346;50.984;5.822;2023-05-10T07:49:15;21.87;;;15.00;;
24443;SDS011;13346;50.984;5.822;2023-05-10T07:51:43;23.83;;;16.47;;
24443;SDS011;13346;50.984;5.822;2023-05-10T07:54:10;25.90;;;15.60;;
24443;SDS011;13346;50.984;5.822;2023-05-10T07:56:37;23.83;;;16.20;;
24443;SDS011;13346;50.984;5.822;2023-05-10T07:59:07;23.77;;;14.30;;
24443;SDS011;13346;50.984;5.822;2023-05-10T08:01:34;24.70;;;15.17;;
24443;SDS011;13346;50.984;5.822;2023-05-10T08:04:02;36.87;;;18.67;;
24443;SDS011;13346;50.984;5.822;2023-05-10T08:06:30;25.57;;;14.10;;
24443;SDS011;13346;50.984;5.822;2023-05-10T08:08:57;28.40;;;15.67;;
24443;SDS011;13346;50.984;5.822;2023-05-10T08:11:24;18.83;;;14.40;;
24443;SDS011;13346;50.984;5.822;2023-05-10T08:13:53;19.80;;;14.03;;
24443;SDS011;13346;50.984;5.822;2023-05-10T08:16:20;22.23;;;12.23;;
24443;SDS011;13346;50.984;5.822;2023-05-10T08:18:47;21.37;;;12.10;;
24443;SDS011;13346;50.984;5.822;2023-05-10T08:21:17;17.92;;;11.77;;
24443;SDS011;13346;50.984;5.822;2023-05-10T08:23:44;22.20;;;12.10;;
24443;SDS011;13346;50.984;5.822;2023-05-10T08:26:11;23.47;;;11.97;;
24443;SDS011;13346;50.984;5.822;2023-05-10T08:28:38;15.67;;;10.97;;
24443;SDS011;13346;50.984;5.822;2023-05-10T08:31:06;13.37;;;10.40;;
24443;SDS011;13346;50.984;5.822;2023-05-10T08:33:33;15.90;;;11.43;;
24443;SDS011;13346;50.984;5.822;2023-05-10T08:36:00;21.20;;;12.05;;
24443;SDS011;13346;50.984;5.822;2023-05-10T08:38:29;21.77;;;12.07;;
24443;SDS011;13346;50.984;5.822;2023-05-10T08:40:56;23.40;;;13.95;;
24443;SDS011;13346;50.984;5.822;2023-05-10T08:43:25;20.00;;;13.45;;
24443;SDS011;13346;50.984;5.822;2023-05-10T08:45:54;19.88;;;13.30;;
24443;SDS011;13346;50.984;5.822;2023-05-10T08:48:23;20.40;;;13.43;;
24443;SDS011;13346;50.984;5.822;2023-05-10T08:50:52;14.18;;;11.27;;
24443;SDS011;13346;50.984;5.822;2023-05-10T08:53:21;17.15;;;12.10;;
24443;SDS011;13346;50.984;5.822;2023-05-10T08:55:53;13.70;;;10.55;;
24443;SDS011;13346;50.984;5.822;2023-05-10T08:58:21;13.73;;;11.13;;
24443;SDS011;13346;50.984;5.822;2023-05-10T09:00:49;10.85;;;9.75;;
24443;SDS011;13346;50.984;5.822;2023-05-10T09:03:17;10.52;;;9.50;;
24443;SDS011;13346;50.984;5.822;2023-05-10T09:05:45;9.20;;;8.25;;
24443;SDS011;13346;50.984;5.822;2023-05-10T09:08:12;9.30;;;8.38;;
24443;SDS011;13346;50.984;5.822;2023-05-10T09:10:41;9.43;;;8.52;;
24443;SDS011;13346;50.984;5.822;2023-05-10T09:13:11;7.63;;;6.85;;
24443;SDS011;13346;50.984;5.822;2023-05-10T09:15:40;7.57;;;6.88;;
24443;SDS011;13346;50.984;5.822;2023-05-10T09:18:07;8.18;;;7.40;;
24443;SDS011;13346;50.984;5.822;2023-05-10T09:20:34;6.82;;;6.25;;
24443;SDS011;13346;50.984;5.822;2023-05-10T09:23:02;6.05;;;5.57;;
24443;SDS011;13346;50.984;5.822;2023-05-10T09:25:30;5.72;;;5.32;;
24443;SDS011;13346;50.984;5.822;2023-05-10T09:27:58;6.82;;;6.25;;
24443;SDS011;13346;50.984;5.822;2023-05-10T09:30:27;6.53;;;6.03;;
24443;SDS011;13346;50.984;5.822;2023-05-10T09:32:56;6.03;;;5.53;;
24443;SDS011;13346;50.984;5.822;2023-05-10T09:35:25;6.20;;;5.70;;
24443;SDS011;13346;50.984;5.822;2023-05-10T09:37:56;6.00;;;5.43;;
24443;SDS011;13346;50.984;5.822;2023-05-10T09:40:26;6.65;;;5.50;;
24443;SDS011;13346;50.984;5.822;2023-05-10T09:42:54;6.05;;;5.47;;
24443;SDS011;13346;50.984;5.822;2023-05-10T09:45:23;4.78;;;4.32;;
24443;SDS011;13346;50.984;5.822;2023-05-10T09:47:53;4.32;;;4.03;;
24443;SDS011;13346;50.984;5.822;2023-05-10T09:50:20;5.88;;;5.38;;
24443;SDS011;13346;50.984;5.822;2023-05-10T09:52:49;4.82;;;4.45;;
24443;SDS011;13346;50.984;5.822;2023-05-10T09:55:18;5.68;;;5.22;;
24443;SDS011;13346;50.984;5.822;2023-05-10T09:57:47;5.65;;;5.18;;
24443;SDS011;13346;50.984;5.822;2023-05-10T10:00:18;6.07;;;5.68;;
24443;SDS011;13346;50.984;5.822;2023-05-10T10:02:46;5.65;;;5.25;;
24443;SDS011;13346;50.984;5.822;2023-05-10T10:05:16;5.50;;;5.05;;
24443;SDS011;13346;50.984;5.822;2023-05-10T10:07:43;5.95;;;5.22;;
24443;SDS011;13346;50.984;5.822;2023-05-10T10:10:11;5.28;;;4.95;;
24443;SDS011;13346;50.984;5.822;2023-05-10T10:12:39;4.55;;;4.25;;
24443;SDS011;13346;50.984;5.822;2023-05-10T10:15:08;4.43;;;4.18;;
24443;SDS011;13346;50.984;5.822;2023-05-10T10:17:35;5.13;;;4.70;;
24443;SDS011;13346;50.984;5.822;2023-05-10T10:20:04;5.25;;;4.47;;
24443;SDS011;13346;50.984;5.822;2023-05-10T10:22:34;6.22;;;5.63;;
24443;SDS011;13346;50.984;5.822;2023-05-10T10:25:03;6.18;;;5.68;;
24443;SDS011;13346;50.984;5.822;2023-05-10T10:27:34;5.60;;;5.10;;
24443;SDS011;13346;50.984;5.822;2023-05-10T10:30:11;4.70;;;4.40;;
24443;SDS011;13346;50.984;5.822;2023-05-10T10:32:53;6.53;;;5.90;;
24443;SDS011;13346;50.984;5.822;2023-05-10T10:35:42;9.40;;;6.72;;
24443;SDS011;13346;50.984;5.822;2023-05-10T10:38:13;8.07;;;6.88;;
24443;SDS011;13346;50.984;5.822;2023-05-10T10:40:40;4.53;;;4.10;;
24443;SDS011;13346;50.984;5.822;2023-05-10T10:46:09;8.55;;;6.95;;
24443;SDS011;13346;50.984;5.822;2023-05-10T10:48:41;6.30;;;5.72;;
24443;SDS011;13346;50.984;5.822;2023-05-10T10:51:13;6.82;;;6.22;;
24443;SDS011;13346;50.984;5.822;2023-05-10T10:53:42;5.38;;;4.88;;
24443;SDS011;13346;50.984;5.822;2023-05-10T10:56:10;5.75;;;5.25;;
24443;SDS011;13346;50.984;5.822;2023-05-10T10:58:40;5.50;;;4.88;;
24443;SDS011;13346;50.984;5.822;2023-05-10T11:01:11;4.38;;;3.92;;
24443;SDS011;13346;50.984;5.822;2023-05-10T11:03:40;4.30;;;3.90;;
24443;SDS011;13346;50.984;5.822;2023-05-10T11:06:07;5.13;;;4.72;;
24443;SDS011;13346;50.984;5.822;2023-05-10T11:08:41;4.25;;;3.88;;
24443;SDS011;13346;50.984;5.822;2023-05-10T11:11:10;4.72;;;4.32;;
24443;SDS011;13346;50.984;5.822;2023-05-10T11:13:42;10.10;;;7.22;;
24443;SDS011;13346;50.984;5.822;2023-05-10T11:16:14;5.90;;;4.90;;
24443;SDS011;13346;50.984;5.822;2023-05-10T11:21:27;5.68;;;5.07;;
24443;SDS011;13346;50.984;5.822;2023-05-10T11:23:57;4.53;;;4.20;;
24443;SDS011;13346;50.984;5.822;2023-05-10T11:26:25;5.15;;;4.70;;
24443;SDS011;13346;50.984;5.822;2023-05-10T11:29:01;4.18;;;3.88;;
24443;SDS011;13346;50.984;5.822;2023-05-10T11:31:30;4.18;;;3.83;;
24443;SDS011;13346;50.984;5.822;2023-05-10T11:33:57;4.22;;;3.90;;
24443;SDS011;13346;50.984;5.822;2023-05-10T11:36:27;6.03;;;5.55;;
24443;SDS011;13346;50.984;5.822;2023-05-10T11:38:57;5.72;;;4.30;;
24443;SDS011;13346;50.984;5.822;2023-05-10T11:41:25;4.53;;;3.72;;
24443;SDS011;13346;50.984;5.822;2023-05-10T11:43:54;4.53;;;4.05;;
24443;SDS011;13346;50.984;5.822;2023-05-10T11:46:23;6.47;;;5.05;;
24443;SDS011;13346;50.984;5.822;2023-05-10T11:48:52;5.57;;;5.03;;
24443;SDS011;13346;50.984;5.822;2023-05-10T11:51:21;9.88;;;5.32;;
24443;SDS011;13346;50.984;5.822;2023-05-10T11:53:49;4.38;;;4.05;;
24443;SDS011;13346;50.984;5.822;2023-05-10T11:56:18;4.03;;;3.67;;
24443;SDS011;13346;50.984;5.822;2023-05-10T11:58:51;4.43;;;4.22;;
24443;SDS011;13346;50.984;5.822;2023-05-10T12:01:20;5.25;;;4.85;;
24443;SDS011;13346;50.984;5.822;2023-05-10T12:03:47;6.18;;;5.43;;
24443;SDS011;13346;50.984;5.822;2023-05-10T12:06:15;6.63;;;6.03;;
24443;SDS011;13346;50.984;5.822;2023-05-10T12:08:44;4.53;;;4.15;;
24443;SDS011;13346;50.984;5.822;2023-05-10T12:11:11;4.75;;;4.30;;
24443;SDS011;13346;50.984;5.822;2023-05-10T12:13:42;5.15;;;4.68;;
24443;SDS011;13346;50.984;5.822;2023-05-10T12:16:15;5.70;;;5.30;;
24443;SDS011;13346;50.984;5.822;2023-05-10T12:18:43;8.15;;;6.60;;
24443;SDS011;13346;50.984;5.822;2023-05-10T12:21:11;4.80;;;4.40;;
24443;SDS011;13346;50.984;5.822;2023-05-10T12:23:39;5.85;;;5.35;;
24443;SDS011;13346;50.984;5.822;2023-05-10T12:26:06;5.50;;;5.03;;
24443;SDS011;13346;50.984;5.822;2023-05-10T12:28:36;5.15;;;4.75;;
24443;SDS011;13346;50.984;5.822;2023-05-10T12:31:05;5.15;;;4.75;;
24443;SDS011;13346;50.984;5.822;2023-05-10T12:33:36;5.88;;;5.38;;
24443;SDS011;13346;50.984;5.822;2023-05-10T12:36:07;5.82;;;5.25;;
24443;SDS011;13346;50.984;5.822;2023-05-10T12:38:35;5.25;;;4.68;;
24443;SDS011;13346;50.984;5.822;2023-05-10T12:41:04;6.43;;;5.75;;
24443;SDS011;13346;50.984;5.822;2023-05-10T12:43:32;5.78;;;4.05;;
24443;SDS011;13346;50.984;5.822;2023-05-10T12:46:04;8.55;;;6.40;;
24443;SDS011;13346;50.984;5.822;2023-05-10T12:48:33;7.03;;;6.25;;
24443;SDS011;13346;50.984;5.822;2023-05-10T12:51:01;8.55;;;5.15;;
24443;SDS011;13346;50.984;5.822;2023-05-10T12:53:28;6.72;;;4.50;;
24443;SDS011;13346;50.984;5.822;2023-05-10T12:55:56;4.82;;;4.32;;
24443;SDS011;13346;50.984;5.822;2023-05-10T12:58:23;5.43;;;5.00;;
24443;SDS011;13346;50.984;5.822;2023-05-10T13:00:50;5.85;;;3.25;;
24443;SDS011;13346;50.984;5.822;2023-05-10T13:03:19;3.30;;;3.10;;
24443;SDS011;13346;50.984;5.822;2023-05-10T13:05:47;2.95;;;2.75;;
24443;SDS011;13346;50.984;5.822;2023-05-10T13:08:14;3.08;;;2.88;;
24443;SDS011;13346;50.984;5.822;2023-05-10T13:10:41;3.08;;;2.83;;
24443;SDS011;13346;50.984;5.822;2023-05-10T13:13:09;3.67;;;3.15;;
24443;SDS011;13346;50.984;5.822;2023-05-10T13:15:36;2.47;;;2.33;;
24443;SDS011;13346;50.984;5.822;2023-05-10T13:18:03;4.10;;;3.15;;
24443;SDS011;13346;50.984;5.822;2023-05-10T13:20:32;4.40;;;3.17;;
24443;SDS011;13346;50.984;5.822;2023-05-10T13:22:59;3.10;;;2.90;;
24443;SDS011;13346;50.984;5.822;2023-05-10T13:25:27;3.60;;;2.40;;
24443;SDS011;13346;50.984;5.822;2023-05-10T13:27:55;2.55;;;2.40;;
24443;SDS011;13346;50.984;5.822;2023-05-10T13:30:22;2.70;;;2.50;;
24443;SDS011;13346;50.984;5.822;2023-05-10T13:32:50;2.90;;;2.70;;
24443;SDS011;13346;50.984;5.822;2023-05-10T13:35:17;2.58;;;2.38;;
24443;SDS011;13346;50.984;5.822;2023-05-10T13:37:46;2.00;;;1.90;;
24443;SDS011;13346;50.984;5.822;2023-05-10T13:40:13;2.95;;;2.58;;
24443;SDS011;13346;50.984;5.822;2023-05-10T13:42:40;3.03;;;2.78;;
24443;SDS011;13346;50.984;5.822;2023-05-10T13:45:08;2.67;;;2.50;;
24443;SDS011;13346;50.984;5.822;2023-05-10T13:47:37;3.75;;;2.67;;
24443;SDS011;13346;50.984;5.822;2023-05-10T13:50:04;2.97;;;2.78;;
24443;SDS011;13346;50.984;5.822;2023-05-10T13:52:32;2.47;;;2.38;;
24443;SDS011;13346;50.984;5.822;2023-05-10T13:55:01;3.33;;;3.13;;
24443;SDS011;13346;50.984;5.822;2023-05-10T13:57:29;3.20;;;3.00;;
24443;SDS011;13346;50.984;5.822;2023-05-10T13:59:56;2.75;;;2.65;;
24443;SDS011;13346;50.984;5.822;2023-05-10T14:02:23;3.13;;;2.92;;
24443;SDS011;13346;50.984;5.822;2023-05-10T14:04:52;2.80;;;2.60;;
24443;SDS011;13346;50.984;5.822;2023-05-10T14:07:19;4.35;;;2.55;;
24443;SDS011;13346;50.984;5.822;2023-05-10T14:09:46;3.72;;;3.25;;
24443;SDS011;13346;50.984;5.822;2023-05-10T14:12:15;3.22;;;2.92;;
24443;SDS011;13346;50.984;5.822;2023-05-10T14:14:42;3.05;;;2.75;;
24443;SDS011;13346;50.984;5.822;2023-05-10T14:17:10;2.63;;;2.42;;
24443;SDS011;13346;50.984;5.822;2023-05-10T14:19:37;1.80;;;1.70;;
24443;SDS011;13346;50.984;5.822;2023-05-10T14:22:04;3.38;;;2.33;;
24443;SDS011;13346;50.984;5.822;2023-05-10T14:24:31;2.78;;;2.58;;
24443;SDS011;13346;50.984;5.822;2023-05-10T14:26:58;2.15;;;2.05;;
24443;SDS011;13346;50.984;5.822;2023-05-10T14:29:27;2.33;;;2.22;;
24443;SDS011;13346;50.984;5.822;2023-05-10T14:31:54;2.20;;;2.10;;
24443;SDS011;13346;50.984;5.822;2023-05-10T14:34:21;3.45;;;2.30;;
24443;SDS011;13346;50.984;5.822;2023-05-10T14:36:49;2.17;;;2.08;;
24443;SDS011;13346;50.984;5.822;2023-05-10T14:39:16;2.35;;;2.25;;
24443;SDS011;13346;50.984;5.822;2023-05-10T14:41:43;2.67;;;2.58;;
24443;SDS011;13346;50.984;5.822;2023-05-10T14:44:10;2.00;;;1.90;;
24443;SDS011;13346;50.984;5.822;2023-05-10T14:46:39;2.47;;;2.35;;
24443;SDS011;13346;50.984;5.822;2023-05-10T14:49:07;3.35;;;3.13;;
24443;SDS011;13346;50.984;5.822;2023-05-10T14:51:34;4.00;;;3.67;;